sensor_id;sensor_type;location;lat;lon;timestamp;pressure;altitude;pressure_sealevel;temperature;humidity
71384;BME280;67558;52.166;5.004;2023-05-24T00:01:39;102600.22;;;13.42;53.38
71384;BME280;67558;52.166;5.004;2023-05-24T00:04:07;102590.78;;;13.39;53.63
71384;BME280;67558;52.166;5.004;2023-05-24T00:06:32;102587.50;;;13.37;53.65
71384;BME280;67558;52.166;5.004;2023-05-24T00:08:59;102591.75;;;13.33;53.48
71384;BME280;67558;52.166;5.004;2023-05-24T00:11:25;102594.09;;;13.29;53.66
71384;BME280;67558;52.166;5.004;2023-05-24T00:13:52;102594.53;;;13.26;53.84
71384;BME280;67558;52.166;5.004;2023-05-24T00:16:17;102598.53;;;13.24;54.07
71384;BME280;67558;52.166;5.004;2023-05-24T00:18:42;102583.94;;;13.20;53.93
71384;BME280;67558;52.166;5.004;2023-05-24T00:21:11;102577.41;;;13.16;53.90
71384;BME280;67558;52.166;5.004;2023-05-24T00:23:37;102585.47;;;13.16;53.98
71384;BME280;67558;52.166;5.004;2023-05-24T00:26:03;102587.00;;;13.11;54.45
71384;BME280;67558;52.166;5.004;2023-05-24T00:28:29;102578.28;;;13.04;54.36
71384;BME280;67558;52.166;5.004;2023-05-24T00:30:56;102570.13;;;12.99;54.46
71384;BME280;67558;52.166;5.004;2023-05-24T00:33:21;102572.31;;;13.02;54.54
71384;BME280;67558;52.166;5.004;2023-05-24T00:35:48;102583.28;;;13.01;54.75
71384;BME280;67558;52.166;5.004;2023-05-24T00:38:13;102580.03;;;12.99;54.61
71384;BME280;67558;52.166;5.004;2023-05-24T00:40:39;102572.09;;;12.92;54.95
71384;BME280;67558;52.166;5.004;2023-05-24T00:43:04;102576.44;;;12.93;54.94
71384;BME280;67558;52.166;5.004;2023-05-24T00:45:30;102578.53;;;12.91;54.83
71384;BME280;67558;52.166;5.004;2023-05-24T00:47:55;102540.78;;;12.57;54.96
71384;BME280;67558;52.166;5.004;2023-05-24T00:50:20;102588.00;;;12.82;55.13
71384;BME280;67558;52.166;5.004;2023-05-24T00:52:46;102582.88;;;12.80;55.24
71384;BME280;67558;52.166;5.004;2023-05-24T00:55:12;102569.91;;;12.77;55.38
71384;BME280;67558;52.166;5.004;2023-05-24T00:57:37;102564.81;;;12.76;55.01
71384;BME280;67558;52.166;5.004;2023-05-24T01:00:04;102576.13;;;12.78;55.24
71384;BME280;67558;52.166;5.004;2023-05-24T01:02:30;102573.09;;;12.74;55.70
71384;BME280;67558;52.166;5.004;2023-05-24T01:04:56;102569.47;;;12.68;55.33
71384;BME280;67558;52.166;5.004;2023-05-24T01:07:44;102569.25;;;12.70;55.56
71384;BME280;67558;52.166;5.004;2023-05-24T01:10:44;102573.81;;;12.69;55.86
71384;BME280;67558;52.166;5.004;2023-05-24T01:13:26;102571.94;;;12.70;55.57
71384;BME280;67558;52.166;5.004;2023-05-24T01:18:34;102569.47;;;12.68;55.91
71384;BME280;67558;52.166;5.004;2023-05-24T01:26:41;102569.59;;;12.62;55.81
71384;BME280;67558;52.166;5.004;2023-05-24T01:29:13;102570.19;;;12.64;55.82
71384;BME280;67558;52.166;5.004;2023-05-24T01:31:39;102567.13;;;12.60;55.85
71384;BME280;67558;52.166;5.004;2023-05-24T01:34:05;102577.28;;;12.58;56.03
71384;BME280;67558;52.166;5.004;2023-05-24T01:36:30;102570.22;;;12.52;56.13
71384;BME280;67558;52.166;5.004;2023-05-24T01:38:56;102565.66;;;12.53;56.07
71384;BME280;67558;52.166;5.004;2023-05-24T01:44:38;102576.38;;;12.64;56.44
71384;BME280;67558;52.166;5.004;2023-05-24T01:47:23;102574.84;;;12.68;56.10
71384;BME280;67558;52.166;5.004;2023-05-24T01:49:53;102576.00;;;12.73;55.59
71384;BME280;67558;52.166;5.004;2023-05-24T01:52:22;102567.38;;;12.70;55.90
71384;BME280;67558;52.166;5.004;2023-05-24T01:54:52;102564.94;;;12.57;56.14
71384;BME280;67558;52.166;5.004;2023-05-24T01:57:21;102561.31;;;12.52;56.51
71384;BME280;67558;52.166;5.004;2023-05-24T01:59:48;102560.72;;;12.49;56.55
71384;BME280;67558;52.166;5.004;2023-05-24T02:02:14;102562.38;;;12.50;56.73
71384;BME280;67558;52.166;5.004;2023-05-24T02:04:39;102556.22;;;12.50;56.71
71384;BME280;67558;52.166;5.004;2023-05-24T02:07:05;102550.25;;;12.48;56.83
71384;BME280;67558;52.166;5.004;2023-05-24T02:09:30;102548.59;;;12.47;56.83
71384;BME280;67558;52.166;5.004;2023-05-24T02:11:56;102556.66;;;12.47;56.80
71384;BME280;67558;52.166;5.004;2023-05-24T02:14:21;102555.84;;;12.46;56.95
71384;BME280;67558;52.166;5.004;2023-05-24T02:16:48;102553.28;;;12.40;57.01
71384;BME280;67558;52.166;5.004;2023-05-24T02:19:15;102542.91;;;12.32;57.08
71384;BME280;67558;52.166;5.004;2023-05-24T02:21:41;102549.44;;;12.36;57.24
71384;BME280;67558;52.166;5.004;2023-05-24T02:24:07;102547.47;;;12.31;57.07
71384;BME280;67558;52.166;5.004;2023-05-24T02:26:35;102550.38;;;12.29;57.15
71384;BME280;67558;52.166;5.004;2023-05-24T02:29:01;102564.84;;;12.28;57.07
71384;BME280;67558;52.166;5.004;2023-05-24T02:31:26;102543.84;;;12.14;57.10
71384;BME280;67558;52.166;5.004;2023-05-24T02:33:54;102558.44;;;12.18;57.33
71384;BME280;67558;52.166;5.004;2023-05-24T02:36:19;102565.44;;;12.19;57.32
71384;BME280;67558;52.166;5.004;2023-05-24T02:38:47;102567.19;;;12.13;57.31
71384;BME280;67558;52.166;5.004;2023-05-24T02:41:13;102569.63;;;12.15;57.34
71384;BME280;67558;52.166;5.004;2023-05-24T02:43:42;102569.28;;;12.11;57.53
71384;BME280;67558;52.166;5.004;2023-05-24T02:46:08;102556.53;;;12.06;57.46
71384;BME280;67558;52.166;5.004;2023-05-24T02:48:33;102560.66;;;12.09;57.49
71384;BME280;67558;52.166;5.004;2023-05-24T02:50:59;102555.75;;;12.06;57.24
71384;BME280;67558;52.166;5.004;2023-05-24T02:53:27;102567.88;;;12.08;57.45
71384;BME280;67558;52.166;5.004;2023-05-24T02:55:52;102561.56;;;12.03;57.47
71384;BME280;67558;52.166;5.004;2023-05-24T02:58:18;102558.75;;;11.98;57.56
71384;BME280;67558;52.166;5.004;2023-05-24T03:00:43;102557.13;;;11.97;57.56
71384;BME280;67558;52.166;5.004;2023-05-24T03:03:09;102565.78;;;11.99;57.57
71384;BME280;67558;52.166;5.004;2023-05-24T03:05:34;102557.59;;;11.94;57.63
71384;BME280;67558;52.166;5.004;2023-05-24T03:07:59;102567.50;;;11.93;57.73
71384;BME280;67558;52.166;5.004;2023-05-24T03:10:25;102560.53;;;11.92;57.73
71384;BME280;67558;52.166;5.004;2023-05-24T03:12:50;102567.97;;;11.90;57.61
71384;BME280;67558;52.166;5.004;2023-05-24T03:15:15;102568.63;;;11.85;57.77
71384;BME280;67558;52.166;5.004;2023-05-24T03:17:41;102560.22;;;11.82;58.00
71384;BME280;67558;52.166;5.004;2023-05-24T03:20:06;102555.69;;;11.82;57.83
71384;BME280;67558;52.166;5.004;2023-05-24T03:22:32;102549.72;;;11.80;57.83
71384;BME280;67558;52.166;5.004;2023-05-24T03:24:57;102562.31;;;11.80;57.88
71384;BME280;67558;52.166;5.004;2023-05-24T03:27:23;102549.97;;;11.79;57.80
71384;BME280;67558;52.166;5.004;2023-05-24T03:29:48;102551.22;;;11.76;57.86
71384;BME280;67558;52.166;5.004;2023-05-24T03:32:13;102563.97;;;11.81;57.79
71384;BME280;67558;52.166;5.004;2023-05-24T03:34:38;102565.47;;;11.77;57.89
71384;BME280;67558;52.166;5.004;2023-05-24T03:37:04;102566.13;;;11.72;57.86
71384;BME280;67558;52.166;5.004;2023-05-24T03:39:29;102570.69;;;11.72;57.83
71384;BME280;67558;52.166;5.004;2023-05-24T03:41:54;102554.72;;;11.65;57.92
71384;BME280;67558;52.166;5.004;2023-05-24T03:44:20;102553.53;;;11.61;58.06
71384;BME280;67558;52.166;5.004;2023-05-24T03:46:45;102547.59;;;11.59;57.90
71384;BME280;67558;52.166;5.004;2023-05-24T03:49:10;102556.38;;;11.66;58.10
71384;BME280;67558;52.166;5.004;2023-05-24T03:51:36;102538.50;;;11.60;58.14
71384;BME280;67558;52.166;5.004;2023-05-24T03:54:01;102557.50;;;11.70;58.18
71384;BME280;67558;52.166;5.004;2023-05-24T03:56:27;102551.59;;;11.68;58.28
71384;BME280;67558;52.166;5.004;2023-05-24T03:58:52;102556.69;;;11.69;58.46
71384;BME280;67558;52.166;5.004;2023-05-24T04:01:18;102546.34;;;11.73;58.39
71384;BME280;67558;52.166;5.004;2023-05-24T04:03:44;102540.97;;;11.73;58.44
71384;BME280;67558;52.166;5.004;2023-05-24T04:06:11;102547.88;;;11.81;58.58
71384;BME280;67558;52.166;5.004;2023-05-24T04:08:36;102546.13;;;11.86;58.53
71384;BME280;67558;52.166;5.004;2023-05-24T04:11:02;102541.50;;;11.94;58.50
71384;BME280;67558;52.166;5.004;2023-05-24T04:13:27;102553.41;;;11.98;58.50
71384;BME280;67558;52.166;5.004;2023-05-24T04:15:53;102553.28;;;12.04;58.61
71384;BME280;67558;52.166;5.004;2023-05-24T04:18:18;102510.00;;;11.89;58.98
71384;BME280;67558;52.166;5.004;2023-05-24T04:20:43;102556.31;;;12.32;58.87
71384;BME280;67558;52.166;5.004;2023-05-24T04:23:09;102548.03;;;12.45;58.78
71384;BME280;67558;52.166;5.004;2023-05-24T04:25:34;102547.31;;;12.61;58.48
71384;BME280;67558;52.166;5.004;2023-05-24T04:27:59;102548.56;;;12.70;58.43
71384;BME280;67558;52.166;5.004;2023-05-24T04:30:27;102552.50;;;12.91;58.56
71384;BME280;67558;52.166;5.004;2023-05-24T04:32:57;102547.34;;;13.02;58.50
71384;BME280;67558;52.166;5.004;2023-05-24T04:35:23;102548.66;;;13.16;58.36
71384;BME280;67558;52.166;5.004;2023-05-24T04:37:50;102558.69;;;13.32;58.17
71384;BME280;67558;52.166;5.004;2023-05-24T04:40:15;102544.63;;;13.42;57.91
71384;BME280;67558;52.166;5.004;2023-05-24T04:42:41;102560.50;;;13.61;57.94
71384;BME280;67558;52.166;5.004;2023-05-24T04:45:07;102559.38;;;13.73;57.84
71384;BME280;67558;52.166;5.004;2023-05-24T04:47:32;102553.94;;;13.85;57.44
71384;BME280;67558;52.166;5.004;2023-05-24T04:49:58;102553.84;;;13.97;57.58
71384;BME280;67558;52.166;5.004;2023-05-24T04:52:23;102552.69;;;14.10;57.37
71384;BME280;67558;52.166;5.004;2023-05-24T04:54:48;102547.72;;;14.19;57.21
71384;BME280;67558;52.166;5.004;2023-05-24T04:57:15;102554.63;;;14.31;57.07
71384;BME280;67558;52.166;5.004;2023-05-24T04:59:41;102553.63;;;14.38;56.99
71384;BME280;67558;52.166;5.004;2023-05-24T05:02:06;102556.97;;;14.45;56.96
71384;BME280;67558;52.166;5.004;2023-05-24T05:04:32;102556.97;;;14.45;57.03
71384;BME280;67558;52.166;5.004;2023-05-24T05:06:57;102559.75;;;14.50;56.84
71384;BME280;67558;52.166;5.004;2023-05-24T05:09:23;102554.44;;;14.55;56.88
71384;BME280;67558;52.166;5.004;2023-05-24T05:11:49;102550.19;;;14.59;56.74
71384;BME280;67558;52.166;5.004;2023-05-24T05:14:14;102552.06;;;14.59;56.56
71384;BME280;67558;52.166;5.004;2023-05-24T05:16:41;102557.47;;;14.59;56.86
71384;BME280;67558;52.166;5.004;2023-05-24T05:19:06;102561.44;;;14.56;56.86
71384;BME280;67558;52.166;5.004;2023-05-24T05:21:32;102562.28;;;14.57;56.91
71384;BME280;67558;52.166;5.004;2023-05-24T05:23:59;102566.09;;;14.61;56.87
71384;BME280;67558;52.166;5.004;2023-05-24T05:26:25;102562.50;;;14.55;56.81
71384;BME280;67558;52.166;5.004;2023-05-24T05:28:51;102567.78;;;14.67;56.98
71384;BME280;67558;52.166;5.004;2023-05-24T05:31:17;102570.13;;;14.80;56.79
71384;BME280;67558;52.166;5.004;2023-05-24T05:33:42;102577.63;;;15.00;56.44
71384;BME280;67558;52.166;5.004;2023-05-24T05:36:07;102572.66;;;15.14;56.23
71384;BME280;67558;52.166;5.004;2023-05-24T05:38:33;102531.38;;;15.08;56.04
71384;BME280;67558;52.166;5.004;2023-05-24T05:40:58;102571.66;;;15.47;55.70
71384;BME280;67558;52.166;5.004;2023-05-24T05:43:23;102565.59;;;15.62;55.34
71384;BME280;67558;52.166;5.004;2023-05-24T05:45:49;102566.28;;;15.74;55.32
71384;BME280;67558;52.166;5.004;2023-05-24T05:48:14;102570.91;;;15.84;55.06
71384;BME280;67558;52.166;5.004;2023-05-24T05:50:40;102575.97;;;16.08;54.88
71384;BME280;67558;52.166;5.004;2023-05-24T05:53:05;102561.94;;;16.11;54.75
71384;BME280;67558;52.166;5.004;2023-05-24T05:55:31;102573.59;;;16.16;54.54
71384;BME280;67558;52.166;5.004;2023-05-24T05:57:56;102571.22;;;16.30;54.58
71384;BME280;67558;52.166;5.004;2023-05-24T06:00:21;102572.16;;;16.46;54.10
71384;BME280;67558;52.166;5.004;2023-05-24T06:02:47;102574.63;;;16.53;53.82
71384;BME280;67558;52.166;5.004;2023-05-24T06:05:12;102574.66;;;16.63;53.96
71384;BME280;67558;52.166;5.004;2023-05-24T06:07:38;102572.22;;;16.67;54.01
71384;BME280;67558;52.166;5.004;2023-05-24T06:10:04;102574.16;;;16.71;53.72
71384;BME280;67558;52.166;5.004;2023-05-24T06:12:30;102571.81;;;16.80;54.12
71384;BME280;67558;52.166;5.004;2023-05-24T06:14:55;102575.31;;;16.86;53.78
71384;BME280;67558;52.166;5.004;2023-05-24T06:17:21;102577.78;;;16.87;53.43
71384;BME280;67558;52.166;5.004;2023-05-24T06:19:49;102574.28;;;16.97;53.14
71384;BME280;67558;52.166;5.004;2023-05-24T06:22:15;102573.75;;;17.05;52.93
71384;BME280;67558;52.166;5.004;2023-05-24T06:24:41;102575.94;;;17.08;52.98
71384;BME280;67558;52.166;5.004;2023-05-24T06:27:07;102587.31;;;17.15;52.67
71384;BME280;67558;52.166;5.004;2023-05-24T06:29:33;102584.63;;;17.20;52.71
71384;BME280;67558;52.166;5.004;2023-05-24T06:31:58;102584.91;;;17.24;53.00
71384;BME280;67558;52.166;5.004;2023-05-24T06:34:24;102584.13;;;17.34;52.49
71384;BME280;67558;52.166;5.004;2023-05-24T06:36:49;102587.63;;;17.39;52.06
71384;BME280;67558;52.166;5.004;2023-05-24T06:39:17;102584.69;;;17.36;51.88
71384;BME280;67558;52.166;5.004;2023-05-24T06:41:43;102582.22;;;17.34;51.43
71384;BME280;67558;52.166;5.004;2023-05-24T06:44:10;102584.66;;;17.31;50.98
71384;BME280;67558;52.166;5.004;2023-05-24T06:46:35;102579.22;;;17.31;51.57
71384;BME280;67558;52.166;5.004;2023-05-24T06:49:01;102575.44;;;17.27;51.23
71384;BME280;67558;52.166;5.004;2023-05-24T06:51:27;102581.97;;;17.36;51.63
71384;BME280;67558;52.166;5.004;2023-05-24T06:53:52;102584.13;;;17.34;51.43
71384;BME280;67558;52.166;5.004;2023-05-24T06:56:18;102583.84;;;17.35;51.25
71384;BME280;67558;52.166;5.004;2023-05-24T06:58:43;102585.44;;;17.31;51.52
71384;BME280;67558;52.166;5.004;2023-05-24T07:01:09;102585.44;;;17.26;50.69
71384;BME280;67558;52.166;5.004;2023-05-24T07:03:34;102587.56;;;17.14;51.04
71384;BME280;67558;52.166;5.004;2023-05-24T07:06:00;102592.38;;;16.96;51.32
71384;BME280;67558;52.166;5.004;2023-05-24T07:08:26;102603.69;;;16.88;51.58
71384;BME280;67558;52.166;5.004;2023-05-24T07:10:52;102602.38;;;16.91;51.43
71384;BME280;67558;52.166;5.004;2023-05-24T07:13:18;102592.69;;;17.00;51.42
71384;BME280;67558;52.166;5.004;2023-05-24T07:15:44;102592.69;;;17.05;50.68
71384;BME280;67558;52.166;5.004;2023-05-24T07:18:09;102582.97;;;17.09;50.98
71384;BME280;67558;52.166;5.004;2023-05-24T07:20:35;102595.97;;;17.23;51.00
71384;BME280;67558;52.166;5.004;2023-05-24T07:23:00;102586.81;;;17.24;50.47
71384;BME280;67558;52.166;5.004;2023-05-24T07:25:26;102584.69;;;17.36;50.47
71384;BME280;67558;52.166;5.004;2023-05-24T07:27:51;102593.06;;;17.55;49.75
71384;BME280;67558;52.166;5.004;2023-05-24T07:30:17;102587.69;;;17.60;49.13
71384;BME280;67558;52.166;5.004;2023-05-24T07:32:42;102594.44;;;17.63;48.57
71384;BME280;67558;52.166;5.004;2023-05-24T07:35:10;102594.72;;;17.66;48.57
71384;BME280;67558;52.166;5.004;2023-05-24T07:37:37;102583.06;;;17.66;48.62
71384;BME280;67558;52.166;5.004;2023-05-24T07:40:02;102590.16;;;17.82;48.73
71384;BME280;67558;52.166;5.004;2023-05-24T07:42:29;102593.66;;;17.93;48.53
71384;BME280;67558;52.166;5.004;2023-05-24T07:44:55;102583.63;;;17.93;48.11
71384;BME280;67558;52.166;5.004;2023-05-24T07:47:21;102601.50;;;18.10;48.52
71384;BME280;67558;52.166;5.004;2023-05-24T07:49:46;102602.03;;;18.17;48.07
71384;BME280;67558;52.166;5.004;2023-05-24T07:52:11;102588.50;;;18.22;47.78
71384;BME280;67558;52.166;5.004;2023-05-24T07:54:37;102579.00;;;18.19;47.51
71384;BME280;67558;52.166;5.004;2023-05-24T07:57:03;102588.75;;;18.20;46.79
71384;BME280;67558;52.166;5.004;2023-05-24T07:59:28;102588.75;;;18.15;46.98
71384;BME280;67558;52.166;5.004;2023-05-24T08:01:54;102589.03;;;18.09;46.77
71384;BME280;67558;52.166;5.004;2023-05-24T08:04:19;102593.38;;;18.15;47.01
71384;BME280;67558;52.166;5.004;2023-05-24T08:06:45;102592.56;;;18.09;46.78
71384;BME280;67558;52.166;5.004;2023-05-24T08:09:11;102586.31;;;18.09;46.80
71384;BME280;67558;52.166;5.004;2023-05-24T08:11:36;102587.16;;;18.09;46.84
71384;BME280;67558;52.166;5.004;2023-05-24T08:14:01;102591.47;;;18.10;46.84
71384;BME280;67558;52.166;5.004;2023-05-24T08:16:27;102583.09;;;18.12;46.84
71384;BME280;67558;52.166;5.004;2023-05-24T08:18:53;102587.41;;;18.23;46.90
71384;BME280;67558;52.166;5.004;2023-05-24T08:21:19;102577.66;;;18.12;46.88
71384;BME280;67558;52.166;5.004;2023-05-24T08:23:44;102590.13;;;18.18;46.84
71384;BME280;67558;52.166;5.004;2023-05-24T08:26:09;102591.47;;;18.15;45.90
71384;BME280;67558;52.166;5.004;2023-05-24T08:28:35;102589.88;;;18.09;46.45
71384;BME280;67558;52.166;5.004;2023-05-24T08:31:00;102583.91;;;18.07;46.31
71384;BME280;67558;52.166;5.004;2023-05-24T08:33:25;102591.47;;;18.20;46.43
71384;BME280;67558;52.166;5.004;2023-05-24T08:35:51;102589.00;;;18.34;46.42
71384;BME280;67558;52.166;5.004;2023-05-24T08:38:17;102585.19;;;18.46;46.24
71384;BME280;67558;52.166;5.004;2023-05-24T08:40:42;102592.47;;;18.55;46.20
71384;BME280;67558;52.166;5.004;2023-05-24T08:43:08;102590.56;;;18.61;45.58
71384;BME280;67558;52.166;5.004;2023-05-24T08:45:37;102595.41;;;18.64;45.00
71384;BME280;67558;52.166;5.004;2023-05-24T08:48:04;102586.78;;;18.57;45.11
71384;BME280;67558;52.166;5.004;2023-05-24T08:50:31;102563.25;;;18.32;44.93
71384;BME280;67558;52.166;5.004;2023-05-24T08:52:58;102588.69;;;18.51;45.16
71384;BME280;67558;52.166;5.004;2023-05-24T08:55:24;102588.94;;;18.55;45.00
71384;BME280;67558;52.166;5.004;2023-05-24T08:57:49;102578.09;;;18.60;44.80
71384;BME280;67558;52.166;5.004;2023-05-24T09:00:16;102584.03;;;18.62;44.65
71384;BME280;67558;52.166;5.004;2023-05-24T09:02:42;102587.28;;;18.64;44.60
71384;BME280;67558;52.166;5.004;2023-05-24T09:05:13;102580.25;;;18.63;44.90
71384;BME280;67558;52.166;5.004;2023-05-24T09:07:42;102584.03;;;18.62;44.77
71384;BME280;67558;52.166;5.004;2023-05-24T09:10:08;102578.09;;;18.50;44.35
71384;BME280;67558;52.166;5.004;2023-05-24T09:12:35;102579.47;;;18.47;44.90
71384;BME280;67558;52.166;5.004;2023-05-24T09:15:02;102574.88;;;18.42;44.76
71384;BME280;67558;52.166;5.004;2023-05-24T09:17:30;102586.28;;;18.39;44.79
71384;BME280;67558;52.166;5.004;2023-05-24T09:19:56;102588.44;;;18.42;44.83
71384;BME280;67558;52.166;5.004;2023-05-24T09:22:24;102577.63;;;18.37;44.37
71384;BME280;67558;52.166;5.004;2023-05-24T09:24:51;102588.44;;;18.42;44.61
71384;BME280;67558;52.166;5.004;2023-05-24T09:27:17;102583.03;;;18.48;44.79
71384;BME280;67558;52.166;5.004;2023-05-24T09:29:46;102595.44;;;18.54;44.33
71384;BME280;67558;52.166;5.004;2023-05-24T09:32:13;102585.72;;;18.48;43.85
71384;BME280;67558;52.166;5.004;2023-05-24T09:34:42;102580.00;;;18.49;44.01
71384;BME280;67558;52.166;5.004;2023-05-24T09:37:11;102575.44;;;18.45;44.17
71384;BME280;67558;52.166;5.004;2023-05-24T09:39:39;102571.09;;;18.49;44.13
71384;BME280;67558;52.166;5.004;2023-05-24T09:42:06;102568.63;;;18.52;43.96
71384;BME280;67558;52.166;5.004;2023-05-24T09:44:31;102564.03;;;18.53;43.97
71384;BME280;67558;52.166;5.004;2023-05-24T09:47:03;102567.53;;;18.53;43.63
71384;BME280;67558;52.166;5.004;2023-05-24T09:49:29;102579.19;;;18.59;43.77
71384;BME280;67558;52.166;5.004;2023-05-24T09:51:55;102571.06;;;18.59;43.67
71384;BME280;67558;52.166;5.004;2023-05-24T09:54:20;102548.84;;;18.52;43.66
71384;BME280;67558;52.166;5.004;2023-05-24T09:56:46;102559.41;;;18.58;43.78
71384;BME280;67558;52.166;5.004;2023-05-24T09:59:12;102566.72;;;18.63;43.97
71384;BME280;67558;52.166;5.004;2023-05-24T10:01:38;102564.81;;;18.58;44.06
71384;BME280;67558;52.166;5.004;2023-05-24T10:04:03;102564.81;;;18.63;43.94
71384;BME280;67558;52.166;5.004;2023-05-24T10:06:35;102575.34;;;18.70;43.61
71384;BME280;67558;52.166;5.004;2023-05-24T10:09:03;102571.53;;;18.71;43.79
71384;BME280;67558;52.166;5.004;2023-05-24T10:11:36;102577.47;;;18.73;43.77
71384;BME280;67558;52.166;5.004;2023-05-24T10:14:03;102568.00;;;18.81;43.80
71384;BME280;67558;52.166;5.004;2023-05-24T10:16:30;102569.88;;;18.91;43.60
71384;BME280;67558;52.166;5.004;2023-05-24T10:18:55;102573.63;;;19.00;43.60
71384;BME280;67558;52.166;5.004;2023-05-24T10:21:22;102564.09;;;19.02;43.57
71384;BME280;67558;52.166;5.004;2023-05-24T10:23:51;102564.91;;;19.03;43.74
71384;BME280;67558;52.166;5.004;2023-05-24T10:26:23;102568.47;;;18.98;43.35
71384;BME280;67558;52.166;5.004;2023-05-24T10:28:53;102557.34;;;18.95;43.56
71384;BME280;67558;52.166;5.004;2023-05-24T10:31:34;102543.78;;;18.95;42.10
71384;BME280;67558;52.166;5.004;2023-05-24T10:34:02;102565.72;;;19.03;43.55
71384;BME280;67558;52.166;5.004;2023-05-24T10:36:29;102569.53;;;19.02;43.35
71384;BME280;67558;52.166;5.004;2023-05-24T10:38:56;102559.78;;;18.96;43.19
71384;BME280;67558;52.166;5.004;2023-05-24T10:41:24;102566.00;;;18.97;43.32
71384;BME280;67558;52.166;5.004;2023-05-24T10:43:52;102559.53;;;18.98;43.17
71384;BME280;67558;52.166;5.004;2023-05-24T10:46:19;102566.00;;;19.02;43.11
71384;BME280;67558;52.166;5.004;2023-05-24T10:48:58;102574.16;;;19.02;42.53
71384;BME280;67558;52.166;5.004;2023-05-24T10:51:34;102564.38;;;19.01;42.91
71384;BME280;67558;52.166;5.004;2023-05-24T10:54:15;102568.19;;;19.00;42.71
71384;BME280;67558;52.166;5.004;2023-05-24T10:56:44;102562.72;;;19.10;42.97
71384;BME280;67558;52.166;5.004;2023-05-24T11:01:56;102566.97;;;19.21;42.23
71384;BME280;67558;52.166;5.004;2023-05-24T11:04:22;102558.25;;;19.24;42.46
71384;BME280;67558;52.166;5.004;2023-05-24T11:09:20;102560.75;;;19.21;42.22
71384;BME280;67558;52.166;5.004;2023-05-24T11:11:48;102552.03;;;19.24;42.66
71384;BME280;67558;52.166;5.004;2023-05-24T11:14:18;102557.94;;;19.31;42.17
71384;BME280;67558;52.166;5.004;2023-05-24T11:16:47;102559.78;;;19.41;42.36
71384;BME280;67558;52.166;5.004;2023-05-24T11:21:43;102562.56;;;19.31;42.01
71384;BME280;67558;52.166;5.004;2023-05-24T11:24:08;102559.91;;;19.26;42.41
71384;BME280;67558;52.166;5.004;2023-05-24T11:26:34;102558.25;;;19.24;42.28
71384;BME280;67558;52.166;5.004;2023-05-24T11:29:00;102560.97;;;19.24;42.32
71384;BME280;67558;52.166;5.004;2023-05-24T11:31:26;102556.66;;;19.23;42.53
71384;BME280;67558;52.166;5.004;2023-05-24T11:33:52;102560.97;;;19.24;42.38
71384;BME280;67558;52.166;5.004;2023-05-24T11:36:18;102551.47;;;19.27;42.15
71384;BME280;67558;52.166;5.004;2023-05-24T11:38:45;102554.47;;;19.26;42.22
71384;BME280;67558;52.166;5.004;2023-05-24T11:41:12;102557.41;;;19.29;42.00
71384;BME280;67558;52.166;5.004;2023-05-24T11:43:37;102555.75;;;19.33;42.19
71384;BME280;67558;52.166;5.004;2023-05-24T11:46:03;102555.22;;;19.31;42.09
71384;BME280;67558;52.166;5.004;2023-05-24T11:48:28;102568.47;;;19.38;42.08
71384;BME280;67558;52.166;5.004;2023-05-24T11:50:55;102565.00;;;19.32;41.92
71384;BME280;67558;52.166;5.004;2023-05-24T11:53:21;102559.59;;;19.32;41.77
71384;BME280;67558;52.166;5.004;2023-05-24T11:55:46;102551.16;;;19.34;41.78
71384;BME280;67558;52.166;5.004;2023-05-24T12:00:46;102558.25;;;19.24;42.06
71384;BME280;67558;52.166;5.004;2023-05-24T12:03:11;102565.31;;;19.26;41.39
71384;BME280;67558;52.166;5.004;2023-05-24T12:05:37;102553.41;;;19.21;42.09
71384;BME280;67558;52.166;5.004;2023-05-24T12:08:04;102555.06;;;19.17;42.12
71384;BME280;67558;52.166;5.004;2023-05-24T12:10:34;102548.53;;;19.23;42.14
71384;BME280;67558;52.166;5.004;2023-05-24T12:13:02;102551.78;;;19.20;42.06
71384;BME280;67558;52.166;5.004;2023-05-24T12:15:27;102545.59;;;19.15;42.02
71384;BME280;67558;52.166;5.004;2023-05-24T12:17:53;102539.59;;;19.18;42.21
71384;BME280;67558;52.166;5.004;2023-05-24T12:20:18;102533.38;;;19.17;42.25
71384;BME280;67558;52.166;5.004;2023-05-24T12:22:50;102543.56;;;19.31;42.21
71384;BME280;67558;52.166;5.004;2023-05-24T12:25:17;102541.91;;;19.35;42.05
71384;BME280;67558;52.166;5.004;2023-05-24T12:27:53;102544.09;;;19.33;42.55
71384;BME280;67558;52.166;5.004;2023-05-24T12:30:26;102542.72;;;19.35;42.40
71384;BME280;67558;52.166;5.004;2023-05-24T12:32:52;102547.09;;;19.31;42.33
71384;BME280;67558;52.166;5.004;2023-05-24T12:35:22;102539.00;;;19.26;42.23
71384;BME280;67558;52.166;5.004;2023-05-24T12:37:48;102541.38;;;19.33;42.46
71384;BME280;67558;52.166;5.004;2023-05-24T12:40:15;102547.06;;;19.36;42.42
71384;BME280;67558;52.166;5.004;2023-05-24T12:42:44;102542.41;;;19.42;42.40
71384;BME280;67558;52.166;5.004;2023-05-24T12:45:10;102548.88;;;19.46;42.33
71384;BME280;67558;52.166;5.004;2023-05-24T12:47:37;102551.16;;;19.34;42.46
71384;BME280;67558;52.166;5.004;2023-05-24T12:50:02;102539.25;;;19.30;42.24
71384;BME280;67558;52.166;5.004;2023-05-24T12:52:28;102555.22;;;19.36;42.24
71384;BME280;67558;52.166;5.004;2023-05-24T12:54:53;102545.75;;;19.34;42.30
71384;BME280;67558;52.166;5.004;2023-05-24T12:57:19;102549.22;;;19.39;42.37
71384;BME280;67558;52.166;5.004;2023-05-24T12:59:44;102555.75;;;19.38;41.46
71384;BME280;67558;52.166;5.004;2023-05-24T13:02:10;102555.69;;;19.43;42.57
71384;BME280;67558;52.166;5.004;2023-05-24T13:04:35;102555.94;;;19.47;42.31
71384;BME280;67558;52.166;5.004;2023-05-24T13:07:01;102562.44;;;19.46;42.53
71384;BME280;67558;52.166;5.004;2023-05-24T13:09:27;102548.34;;;19.49;42.28